Flight Track Log - Related Links

Times and Time Zones

All times are in EDT time to prevent confusion due to time zone crossing. See the UAL623 flight status page for this flight to view local times or setup timezone preferences in your user account.

Time Position Orientation Groundspeed Altitude Reporting Facility
EDT Latitude Longitude Course Direction KTS MPH feet Rate Location/Type
Wed 06:48:01 PM 29.9767 -95.3008 30° Northeast 158 182 600  Level Houston Center
Wed 06:49:07 PM 30.0333 -95.2797 18° North 272 313 2,700 1,547 Climbing Houston Center
Wed 06:50:09 PM 30.1083 -95.2708 North 264 304 3,900 1,500 Climbing Houston Center
Wed 06:51:11 PM 30.1881 -95.2500 13° North 287 330 5,800 2,371 Climbing Houston Center
Wed 06:52:13 PM 30.2678 -95.2219 17° North 298 343 8,800 2,661 Climbing Houston Center
Wed 06:53:00 PM 30.6974 -94.9851 30° Northeast  Level FlightAware Approximate
Wed 06:53:15 PM 30.3697 -95.1881 16° North 312 359 11,300  Level Houston Center
Wed 06:54:17 PM 30.4564 -95.1244 32° Northeast 361 415 13,700 2,880 Climbing Houston Center
Wed 06:55:20 PM 30.5339 -95.0308 46° Northeast 396 456 17,300 3,120 Climbing Houston Center
Wed 06:56:22 PM 30.5975 -94.9258 55° Northeast 398 458 20,200 2,661 Climbing Houston Center
Wed 06:57:24 PM 30.6772 -94.7947 55° Northeast 415 478 22,800 2,081 Climbing Houston Center
Wed 06:58:26 PM 30.7453 -94.6756 56° Northeast 438 504 24,500 1,452 Climbing Houston Center
Wed 06:59:28 PM 30.8167 -94.5494 57° Northeast 464 534 25,800 1,500 Climbing Houston Center
Wed 07:00:30 PM 30.9033 -94.4311 49° Northeast 481 554 27,600 1,533 Climbing Houston Center
Wed 07:00:58 PM 30.9658 -94.3756 37° Northeast 471 542 28,100 774 Climbing Fort Worth Center
Wed 07:01:32 PM 31.0125 -94.3364 36° Northeast 489 563 28,400 875 Climbing Houston Center
Wed 07:02:34 PM 31.1522 -94.2183 36° Northeast 511 588 29,500 1,116 Climbing Houston Center
Wed 07:02:58 PM 31.2011 -94.1736 38° Northeast 515 593 30,000 1,355 Climbing Fort Worth Center
Wed 07:03:36 PM 31.2742 -94.1142 35° Northeast 538 619 30,900 1,604 Climbing Houston Center
Wed 07:04:39 PM 31.3925 -94.0114 37° Northeast 535 616 32,700 1,537 Climbing Houston Center
Wed 07:04:58 PM 31.4378 -93.9706 38° Northeast 531 611 33,000 228 Climbing Fort Worth Center
Wed 07:05:58 PM 31.5539 -93.8689 37° Northeast 526 605 33,000 300 Level Fort Worth Center
Wed 07:06:58 PM 31.6600 -93.7842 34° Northeast 521 600 33,600 1,000 Climbing Fort Worth Center
Wed 07:07:58 PM 31.7742 -93.6844 37° Northeast 510 587 35,000 1,050 Climbing Fort Worth Center
Wed 07:08:58 PM 31.8881 -93.5844 37° Northeast 510 587 35,700 500 Climbing Fort Worth Center
Wed 07:09:58 PM 32.0039 -93.4817 37° Northeast 510 587 36,000 150 Climbing Fort Worth Center
Wed 07:10:58 PM 32.1175 -93.3836 36° Northeast 510 587 36,000 450 Level Fort Worth Center
Wed 07:11:58 PM 32.2431 -93.2625 39° Northeast 522 601 36,900 500 Climbing Fort Worth Center
Wed 07:12:58 PM 32.3525 -93.1664 37° Northeast 517 595 37,000 50 Climbing Fort Worth Center
Wed 07:13:58 PM 32.4661 -93.0653 37° Northeast 511 588 37,000  Level Fort Worth Center
Wed 07:14:58 PM 32.5836 -92.9633 36° Northeast 511 588 37,000  Level Fort Worth Center
Wed 07:15:58 PM 32.6947 -92.8617 38° Northeast 511 588 37,000  Level Fort Worth Center
Wed 07:16:59 PM 32.8078 -92.7594 37° Northeast 511 588 37,000  Level Fort Worth Center
Wed 07:17:58 PM 32.9250 -92.6569 36° Northeast 511 588 37,000  Level Fort Worth Center
Wed 07:18:58 PM 33.0403 -92.5567 36° Northeast 511 588 37,000  Level Fort Worth Center
Wed 07:19:58 PM 33.1508 -92.4539 38° Northeast 511 588 37,000  Level Fort Worth Center
Wed 07:21:09 PM 33.2825 -92.3353 37° Northeast 510 587 37,000  Level Memphis Center
Wed 07:22:09 PM 33.3947 -92.2333 37° Northeast 510 587 37,000  Level Memphis Center
Wed 07:23:09 PM 33.5089 -92.1311 37° Northeast 510 587 37,000  Level Memphis Center
Wed 07:24:09 PM 33.6169 -92.0261 39° Northeast 505 581 37,000  Level Memphis Center
Wed 07:25:09 PM 33.7308 -91.9233 37° Northeast 505 581 37,000  Level Memphis Center
Wed 07:26:09 PM 33.8450 -91.8203 37° Northeast 510 587 37,000  Level Memphis Center
Wed 07:27:09 PM 33.9567 -91.7169 37° Northeast 510 587 37,000  Level Memphis Center
Wed 07:28:09 PM 34.0578 -91.6183 39° Northeast 498 573 37,000  Level Memphis Center
Wed 07:29:09 PM 34.1694 -91.5144 38° Northeast 498 573 37,000  Level Memphis Center
Wed 07:30:09 PM 34.2811 -91.4078 38° Northeast 503 579 37,000  Level Memphis Center
Wed 07:31:09 PM 34.4050 -91.2936 37° Northeast 503 579 37,000  Level Memphis Center
Wed 07:32:09 PM 34.5186 -91.1889 37° Northeast 503 579 37,000  Level Memphis Center
Wed 07:33:09 PM 34.6319 -91.0814 38° Northeast 511 588 37,000  Level Memphis Center
Wed 07:34:09 PM 34.7431 -90.9764 38° Northeast 511 588 37,000  Level Memphis Center
Wed 07:35:09 PM 34.8542 -90.8683 39° Northeast 511 588 37,000  Level Memphis Center
Wed 07:36:09 PM 34.9669 -90.7625 38° Northeast 511 588 37,000  Level Memphis Center
Wed 07:37:09 PM 35.0800 -90.6514 39° Northeast 511 588 37,000  Level Memphis Center
Wed 07:38:09 PM 35.1928 -90.5425 38° Northeast 519 597 37,000  Level Memphis Center
Wed 07:39:09 PM 35.2931 -90.4461 38° Northeast 514 592 37,000  Level Memphis Center
Wed 07:40:09 PM 35.4058 -90.3367 38° Northeast 514 592 37,000  Level Memphis Center
Wed 07:41:09 PM 35.5183 -90.2269 38° Northeast 514 592 37,000  Level Memphis Center
Wed 07:42:09 PM 35.6286 -90.1169 39° Northeast 514 592 37,000  Level Memphis Center
Wed 07:43:09 PM 35.7431 -89.9989 40° Northeast 495 570 37,000  Level Memphis Center
Wed 07:44:08 PM 35.8511 -89.8908 39° Northeast 495 570 37,000  Level Memphis Center
Wed 07:45:09 PM 35.9592 -89.7850 38° Northeast 495 570 37,000  Level Memphis Center
Wed 07:46:09 PM 36.0692 -89.6764 39° Northeast 495 570 37,000  Level Memphis Center
Wed 07:47:09 PM 36.1769 -89.5675 39° Northeast 495 570 37,000  Level Memphis Center
Wed 07:48:09 PM 36.2719 -89.4561 43° Northeast 489 563 37,000  Level Memphis Center
Wed 07:49:09 PM 36.3711 -89.3183 48° Northeast 500 575 37,000  Level Memphis Center
Wed 07:50:09 PM 36.4492 -89.1986 51° Northeast 494 568 37,000  Level Memphis Center
Wed 07:51:09 PM 36.5375 -89.0681 50° Northeast 494 568 37,000  Level Memphis Center
Wed 07:52:09 PM 36.6236 -88.9400 50° Northeast 483 556 37,000  Level Memphis Center
Wed 07:53:08 PM 36.7097 -88.8117 50° Northeast 483 556 37,000  Level Memphis Center
Wed 07:54:09 PM 36.7975 -88.6781 51° Northeast 478 550 37,000  Level Memphis Center
Wed 07:55:09 PM 36.8811 -88.5464 52° Northeast 478 550 37,000  Level Memphis Center
Wed 07:56:09 PM 36.9686 -88.4094 51° Northeast 484 557 37,000  Level Memphis Center
Wed 07:57:49 PM 37.1142 -88.1811 51° Northeast 501 577 37,000  Level Indianapolis Center
Wed 07:58:50 PM 37.2019 -88.0447 51° Northeast 498 573 37,000  Level Indianapolis Center
Wed 07:59:52 PM 37.2894 -87.9075 51° Northeast 496 571 37,000  Level Indianapolis Center
Wed 08:00:54 PM 37.3778 -87.7719 51° Northeast 495 570 37,000  Level Indianapolis Center
Wed 08:01:55 PM 37.4639 -87.6358 51° Northeast 493 567 37,000  Level Indianapolis Center
Wed 08:02:57 PM 37.5489 -87.4994 52° Northeast 490 564 37,000  Level Indianapolis Center
Wed 08:03:59 PM 37.6472 -87.3428 52° Northeast 484 557 37,000  Level Indianapolis Center
Wed 08:05:01 PM 37.7319 -87.2086 51° Northeast 480 552 37,000  Level Indianapolis Center
Wed 08:06:02 PM 37.8153 -87.0733 52° Northeast 486 559 37,000  Level Indianapolis Center
Wed 08:07:04 PM 37.8972 -86.9397 52° Northeast 484 557 37,000 194 Level Indianapolis Center
Wed 08:08:06 PM 37.9806 -86.8061 52° Northeast 486 559 37,400 585 Climbing Indianapolis Center
Wed 08:09:07 PM 38.0631 -86.6708 52° Northeast 487 560 38,200 780 Climbing Indianapolis Center
Wed 08:10:09 PM 38.1464 -86.5350 52° Northeast 491 565 39,000 387 Climbing Indianapolis Center
Wed 08:11:11 PM 38.2428 -86.3758 52° Northeast 476 548 39,000  Level Indianapolis Center
Wed 08:12:13 PM 38.3239 -86.2439 52° Northeast 473 544 39,000  Level Indianapolis Center
Wed 08:13:14 PM 38.4164 -86.1253 45° Northeast 471 542 39,000  Level Indianapolis Center
Wed 08:14:16 PM 38.5142 -86.0103 43° Northeast 476 548 39,000  Level Indianapolis Center
Wed 08:15:18 PM 38.6114 -85.8947 43° Northeast 477 549 39,000  Level Indianapolis Center
Wed 08:16:19 PM 38.7217 -85.7750 40° Northeast 477 549 39,000  Level Indianapolis Center
Wed 08:17:21 PM 38.8219 -85.6650 41° Northeast 476 548 39,000  Level Indianapolis Center
Wed 08:18:23 PM 38.9219 -85.5567 40° Northeast 475 547 39,000  Level Indianapolis Center
Wed 08:19:24 PM 39.0211 -85.4531 39° Northeast 466 536 39,000  Level Indianapolis Center
Wed 08:20:26 PM 39.1200 -85.3486 39° Northeast 463 533 39,000  Level Indianapolis Center
Wed 08:21:27 PM 39.2356 -85.2244 40° Northeast 457 526 39,000  Level Indianapolis Center
Wed 08:22:29 PM 39.3144 -85.0933 52° Northeast 467 537 39,000  Level Indianapolis Center
Wed 08:23:31 PM 39.3864 -84.9550 56° Northeast 468 539 39,000  Level Indianapolis Center
Wed 08:24:32 PM 39.4647 -84.8056 56° Northeast 468 539 39,000 -49 Level Indianapolis Center
Wed 08:25:34 PM 39.5378 -84.6625 56° Northeast 469 540 38,900  Descending Indianapolis Center
Wed 08:26:36 PM 39.6103 -84.5208 56° Northeast 469 540 39,000  Climbing Indianapolis Center
Wed 08:27:37 PM 39.6836 -84.3772 56° Northeast 470 541 38,900 -49 Descending Indianapolis Center
Wed 08:28:39 PM 39.7569 -84.2353 56° Northeast 470 541 38,900 48 Level Indianapolis Center
Wed 08:29:41 PM 39.8314 -84.0928 56° Northeast 469 540 39,000 48 Climbing Indianapolis Center
Wed 08:30:43 PM 39.9050 -83.9481 56° Northeast 472 543 39,000  Level Indianapolis Center
Wed 08:31:44 PM 39.9778 -83.8053 56° Northeast 467 537 39,000  Level Indianapolis Center
Wed 08:32:45 PM 40.0517 -83.6597 56° Northeast 469 540 39,000 -49 Level Indianapolis Center
Wed 08:33:47 PM 40.1258 -83.5139 56° Northeast 472 543 38,900  Descending Indianapolis Center
Wed 08:34:49 PM 40.1989 -83.3686 57° Northeast 470 541 39,000  Climbing Indianapolis Center
Wed 08:35:50 PM 40.2714 -83.2253 56° Northeast 468 539 38,900  Descending Indianapolis Center
Wed 08:36:52 PM 40.3428 -83.0817 57° Northeast 466 536 39,000 49 Climbing Indianapolis Center
Wed 08:37:53 PM 40.4253 -82.9133 57° Northeast 466 536 39,000 -49 Level Indianapolis Center
Wed 08:38:55 PM 40.4961 -82.7692 57° Northeast 465 535 38,900  Descending Indianapolis Center
Wed 08:39:56 PM 40.5672 -82.6256 57° Northeast 465 535 39,000 49 Climbing Indianapolis Center
Wed 08:40:58 PM 40.6364 -82.4833 57° Northeast 470 541 39,000  Level Indianapolis Center
Wed 08:41:21 PM 40.6586 -82.4361 58° Northeast 458 527 39,000  Level Cleveland Center
Wed 08:42:21 PM 40.7275 -82.2928 58° Northeast 458 527 39,000  Level Cleveland Center
Wed 08:43:21 PM 40.7986 -82.1492 57° Northeast 458 527 39,000  Level Cleveland Center
Wed 08:44:21 PM 40.8672 -82.0025 58° Northeast 463 533 39,000  Level Cleveland Center
Wed 08:45:21 PM 40.9442 -81.8422 58° Northeast 463 533 39,000  Level Cleveland Center
Wed 08:46:21 PM 41.0144 -81.6975 57° Northeast 463 533 39,000  Level Cleveland Center
Wed 08:47:21 PM 41.0825 -81.5472 59° Northeast 468 539 39,000  Level Cleveland Center
Wed 08:48:21 PM 41.1503 -81.4158 56° Northeast 474 545 39,000  Level Cleveland Center
Wed 08:49:21 PM 41.2222 -81.2511 60° Northeast 474 545 39,000  Level Cleveland Center
Wed 08:50:21 PM 41.2939 -81.1028 57° Northeast 474 545 39,000  Level Cleveland Center
Wed 08:51:21 PM 41.3633 -80.9511 59° Northeast 474 545 39,000  Level Cleveland Center
Wed 08:52:21 PM 41.4344 -80.8047 57° Northeast 474 545 39,000  Level Cleveland Center
Wed 08:53:21 PM 41.5033 -80.6553 58° Northeast 479 551 39,000  Level Cleveland Center
Wed 08:54:21 PM 41.5722 -80.5025 59° Northeast 474 545 39,000  Level Cleveland Center
Wed 08:55:21 PM 41.6428 -80.3469 59° Northeast 479 551 39,000  Level Cleveland Center
Wed 08:56:21 PM 41.7092 -80.1936 60° Northeast 479 551 39,000  Level Cleveland Center
Wed 08:57:21 PM 41.7564 -80.0236 70° East 474 545 39,000  Level Cleveland Center
Wed 08:58:21 PM 41.8014 -79.8478 71° East 483 556 39,000  Level Cleveland Center
Wed 08:59:21 PM 41.8397 -79.6747 73° East 492 566 39,000  Level Cleveland Center
Wed 09:00:21 PM 41.8800 -79.5206 71° East 492 566 39,000  Level Cleveland Center
Wed 09:01:21 PM 41.9219 -79.3414 72° East 492 566 39,000  Level Cleveland Center
Wed 09:02:21 PM 41.9636 -79.1617 73° East 492 566 39,000  Level Cleveland Center
Wed 09:03:21 PM 42.0050 -78.9819 73° East 503 579 39,000  Level Cleveland Center
Wed 09:04:21 PM 42.0483 -78.7992 72° East 503 579 39,000  Level Cleveland Center
Wed 09:05:21 PM 42.0892 -78.6161 73° East 503 579 39,000  Level Cleveland Center
Wed 09:06:21 PM 42.1297 -78.4331 73° East 503 579 39,000  Level Cleveland Center
Wed 09:07:21 PM 42.1778 -78.2350 72° East 508 585 39,000  Level Cleveland Center
Wed 09:08:21 PM 42.2178 -78.0514 74° East 503 579 39,000  Level Cleveland Center
Wed 09:09:21 PM 42.2594 -77.8644 73° East 503 579 39,000  Level Cleveland Center
Wed 09:10:21 PM 42.2986 -77.6831 74° East 503 579 39,000  Level Cleveland Center
Wed 09:11:21 PM 42.3397 -77.4958 73° East 508 585 39,000  Level Cleveland Center
Wed 09:13:32 PM 42.4261 -77.0875 74° East 511 588 39,000  Level Boston Center
Wed 09:14:32 PM 42.4525 -76.8981 79° East 511 588 39,000  Level Boston Center
Wed 09:15:32 PM 42.4747 -76.7025 81° East 511 588 39,000  Level Boston Center
Wed 09:16:32 PM 42.4878 -76.5119 85° East 516 594 39,000  Level Boston Center
Wed 09:17:32 PM 42.4928 -76.3150 88° East 516 594 39,000  Level Boston Center
Wed 09:18:32 PM 42.5006 -76.1381 87° East 516 594 39,000  Level Boston Center
Wed 09:19:32 PM 42.5047 -75.9411 88° East 516 594 39,000 -50 Level Boston Center
Wed 09:20:32 PM 42.5128 -75.7442 87° East 516 594 38,900  Descending Boston Center
Wed 09:21:32 PM 42.5153 -75.5839 89° East 516 594 39,000 50 Climbing Boston Center
Wed 09:22:32 PM 42.5194 -75.3472 89° East 521 600 39,000 -50 Level Boston Center
Wed 09:23:32 PM 42.5244 -75.1503 88° East 521 600 38,900 -50 Descending Boston Center
Wed 09:24:32 PM 42.5267 -74.9561 89° East 515 593 38,900 50 Level Boston Center
Wed 09:25:32 PM 42.5308 -74.7617 88° East 515 593 39,000  Climbing Boston Center
Wed 09:26:32 PM 42.5328 -74.5644 89° East 515 593 38,900  Descending Boston Center
Wed 09:27:32 PM 42.5403 -74.3703 87° East 515 593 39,000 50 Climbing Boston Center
Wed 09:28:32 PM 42.5414 -74.1758 89° East 515 593 39,000  Level Boston Center
Wed 09:29:32 PM 42.5442 -73.9789 89° East 515 593 39,000  Level Boston Center
Wed 09:30:32 PM 42.5467 -73.7844 89° East 515 593 39,000 -300 Level Boston Center
Wed 09:31:32 PM 42.5467 -73.5869 90° East 515 593 38,400 -1,450 Descending Boston Center
Wed 09:32:32 PM 42.5486 -73.3728 89° East 515 593 36,100 -2,900 Descending Boston Center
Wed 09:33:32 PM 42.5500 -73.1814 89° East 528 608 32,600 -3,500 Descending Boston Center
Wed 09:34:32 PM 42.5492 -72.9839 90° East 533 613 29,100 -3,250 Descending Boston Center
Wed 09:35:32 PM 42.5500 -72.7839 90° East 533 613 26,100 -2,727 Descending Boston Center
Wed 09:36:44 PM 42.5483 -72.5894 91° East 526 605 23,100 -2,773 Descending Boston Center
Wed 09:37:44 PM 42.5464 -72.3556 91° East 519 597 20,000 -2,900 Descending Boston Center
Wed 09:38:44 PM 42.5458 -72.1667 90° East 480 552 17,300 -2,500 Descending Boston Center
Wed 09:39:44 PM 42.5392 -71.9919 93° East 474 545 15,000 -2,300 Descending Boston Center
Wed 09:40:44 PM 42.5239 -71.8231 97° East 458 527 12,700 -2,000 Descending Boston Center
Wed 09:41:44 PM 42.5083 -71.6628 97° East 439 505 11,000 -1,145 Descending Boston Center
Wed 09:42:34 PM 42.5000 -71.5333 95° East 386 444 10,600 -617 Descending KA90
Wed 09:43:31 PM 42.4833 -71.4167 101° East 345 397 9,900 -1,100 Descending KA90
Wed 09:44:34 PM 42.4667 -71.2833 100° East 330 380 8,400 -1,344 Descending KA90
Wed 09:45:36 PM 42.5000 -71.1667 69° East 316 364 7,100 -1,200 Descending KA90
Wed 09:46:34 PM 42.5333 -71.0667 66° East 309 356 6,000 -864 Descending KA90
Wed 09:47:34 PM 42.5833 -71.0167 36° Northeast 241 277 5,400 -1,317 Descending KA90
Wed 09:48:37 PM 42.5667 -70.9333 105° East 234 269 3,300 -1,200 Descending KA90
Wed 09:49:34 PM 42.5167 -70.9333 180° South 180 207 3,000 -316 Descending KA90

Login

Don't have an account? Register now (free) for customized features, flight alerts, and more!